sensor_id;sensor_type;location;lat;lon;timestamp;temperature;humidity
33207;DHT22;19565;46.602;11.534;2023-09-19T00:02:09;17.90;99.90
33207;DHT22;19565;46.602;11.534;2023-09-19T00:04:39;17.80;99.90
33207;DHT22;19565;46.602;11.534;2023-09-19T00:07:11;17.70;99.90
33207;DHT22;19565;46.602;11.534;2023-09-19T00:09:42;17.50;99.90
33207;DHT22;19565;46.602;11.534;2023-09-19T00:12:14;17.50;99.90
33207;DHT22;19565;46.602;11.534;2023-09-19T00:14:44;17.30;99.90
33207;DHT22;19565;46.602;11.534;2023-09-19T00:17:14;17.40;99.90
33207;DHT22;19565;46.602;11.534;2023-09-19T00:19:45;17.50;99.90
33207;DHT22;19565;46.602;11.534;2023-09-19T00:22:22;17.50;99.90
33207;DHT22;19565;46.602;11.534;2023-09-19T00:25:06;17.50;99.90
33207;DHT22;19565;46.602;11.534;2023-09-19T00:27:41;17.40;99.90
33207;DHT22;19565;46.602;11.534;2023-09-19T00:30:19;17.50;99.90
33207;DHT22;19565;46.602;11.534;2023-09-19T00:32:53;17.50;99.90
33207;DHT22;19565;46.602;11.534;2023-09-19T00:35:28;17.60;99.90
33207;DHT22;19565;46.602;11.534;2023-09-19T00:37:59;17.60;99.90
33207;DHT22;19565;46.602;11.534;2023-09-19T00:40:29;17.60;99.90
33207;DHT22;19565;46.602;11.534;2023-09-19T00:43:03;17.80;99.90
33207;DHT22;19565;46.602;11.534;2023-09-19T00:45:34;17.90;99.90
33207;DHT22;19565;46.602;11.534;2023-09-19T00:48:07;17.90;99.90
33207;DHT22;19565;46.602;11.534;2023-09-19T00:50:39;17.80;99.90
33207;DHT22;19565;46.602;11.534;2023-09-19T00:53:15;17.70;99.90
33207;DHT22;19565;46.602;11.534;2023-09-19T00:55:47;17.70;99.90
33207;DHT22;19565;46.602;11.534;2023-09-19T00:58:19;17.70;99.90
33207;DHT22;19565;46.602;11.534;2023-09-19T01:00:50;17.60;99.90
33207;DHT22;19565;46.602;11.534;2023-09-19T01:03:22;17.60;99.90
33207;DHT22;19565;46.602;11.534;2023-09-19T01:05:52;17.50;99.90
33207;DHT22;19565;46.602;11.534;2023-09-19T01:08:23;17.40;99.90
33207;DHT22;19565;46.602;11.534;2023-09-19T01:11:03;17.20;99.90
33207;DHT22;19565;46.602;11.534;2023-09-19T01:13:47;17.10;99.90
33207;DHT22;19565;46.602;11.534;2023-09-19T01:16:25;17.00;99.90
33207;DHT22;19565;46.602;11.534;2023-09-19T01:19:06;17.00;99.90
33207;DHT22;19565;46.602;11.534;2023-09-19T01:21:44;17.20;99.90
33207;DHT22;19565;46.602;11.534;2023-09-19T01:24:38;17.30;99.90
33207;DHT22;19565;46.602;11.534;2023-09-19T01:27:42;17.40;99.90
33207;DHT22;19565;46.602;11.534;2023-09-19T01:30:24;17.10;99.90
33207;DHT22;19565;46.602;11.534;2023-09-19T01:32:57;17.00;99.90
33207;DHT22;19565;46.602;11.534;2023-09-19T01:35:32;16.90;99.90
33207;DHT22;19565;46.602;11.534;2023-09-19T01:38:29;16.90;99.90
33207;DHT22;19565;46.602;11.534;2023-09-19T01:41:29;16.90;99.90
33207;DHT22;19565;46.602;11.534;2023-09-19T01:44:17;17.10;99.90
33207;DHT22;19565;46.602;11.534;2023-09-19T01:46:58;17.10;99.90
33207;DHT22;19565;46.602;11.534;2023-09-19T01:49:48;17.10;99.90
33207;DHT22;19565;46.602;11.534;2023-09-19T01:52:21;17.20;99.90
33207;DHT22;19565;46.602;11.534;2023-09-19T01:54:52;17.20;99.90
33207;DHT22;19565;46.602;11.534;2023-09-19T01:57:28;17.30;99.90
33207;DHT22;19565;46.602;11.534;2023-09-19T02:00:03;17.40;99.90
33207;DHT22;19565;46.602;11.534;2023-09-19T02:02:37;17.30;99.90
33207;DHT22;19565;46.602;11.534;2023-09-19T02:05:08;17.30;99.90
33207;DHT22;19565;46.602;11.534;2023-09-19T02:07:39;17.20;99.90
33207;DHT22;19565;46.602;11.534;2023-09-19T02:10:09;17.10;99.90
33207;DHT22;19565;46.602;11.534;2023-09-19T02:12:40;17.20;99.90
33207;DHT22;19565;46.602;11.534;2023-09-19T02:15:10;17.20;99.90
33207;DHT22;19565;46.602;11.534;2023-09-19T02:17:42;17.00;99.90
33207;DHT22;19565;46.602;11.534;2023-09-19T02:20:14;16.80;99.90
33207;DHT22;19565;46.602;11.534;2023-09-19T02:22:45;16.90;99.90
33207;DHT22;19565;46.602;11.534;2023-09-19T02:25:15;17.00;99.90
33207;DHT22;19565;46.602;11.534;2023-09-19T02:27:47;17.10;99.90
33207;DHT22;19565;46.602;11.534;2023-09-19T02:30:17;17.10;99.90
33207;DHT22;19565;46.602;11.534;2023-09-19T02:32:50;17.20;99.90
33207;DHT22;19565;46.602;11.534;2023-09-19T02:35:20;17.20;99.90
33207;DHT22;19565;46.602;11.534;2023-09-19T02:37:51;17.20;99.90
33207;DHT22;19565;46.602;11.534;2023-09-19T02:40:21;17.20;99.90
33207;DHT22;19565;46.602;11.534;2023-09-19T02:42:55;17.30;99.90
33207;DHT22;19565;46.602;11.534;2023-09-19T02:45:27;17.40;99.90
33207;DHT22;19565;46.602;11.534;2023-09-19T02:48:00;17.40;99.90
33207;DHT22;19565;46.602;11.534;2023-09-19T02:50:30;17.30;99.90
33207;DHT22;19565;46.602;11.534;2023-09-19T02:53:02;17.10;99.90
33207;DHT22;19565;46.602;11.534;2023-09-19T02:55:33;17.00;99.90
33207;DHT22;19565;46.602;11.534;2023-09-19T02:58:13;17.10;99.90
33207;DHT22;19565;46.602;11.534;2023-09-19T03:00:49;17.20;99.90
33207;DHT22;19565;46.602;11.534;2023-09-19T03:03:29;17.10;99.90
33207;DHT22;19565;46.602;11.534;2023-09-19T03:06:04;17.20;99.90
33207;DHT22;19565;46.602;11.534;2023-09-19T03:08:36;17.00;99.90
33207;DHT22;19565;46.602;11.534;2023-09-19T03:11:09;16.90;99.90
33207;DHT22;19565;46.602;11.534;2023-09-19T03:13:44;16.90;99.90
33207;DHT22;19565;46.602;11.534;2023-09-19T03:16:18;16.70;99.90
33207;DHT22;19565;46.602;11.534;2023-09-19T03:18:52;16.60;99.90
33207;DHT22;19565;46.602;11.534;2023-09-19T03:21:22;16.60;99.90
33207;DHT22;19565;46.602;11.534;2023-09-19T03:23:55;16.70;99.90
33207;DHT22;19565;46.602;11.534;2023-09-19T03:26:25;16.70;99.90
33207;DHT22;19565;46.602;11.534;2023-09-19T03:28:56;16.40;99.90
33207;DHT22;19565;46.602;11.534;2023-09-19T03:31:26;16.30;99.90
33207;DHT22;19565;46.602;11.534;2023-09-19T03:33:58;16.40;99.90
33207;DHT22;19565;46.602;11.534;2023-09-19T03:36:31;16.50;99.90
33207;DHT22;19565;46.602;11.534;2023-09-19T03:39:03;16.60;99.90
33207;DHT22;19565;46.602;11.534;2023-09-19T03:41:34;16.50;99.90
33207;DHT22;19565;46.602;11.534;2023-09-19T03:44:05;16.50;99.90
33207;DHT22;19565;46.602;11.534;2023-09-19T03:46:35;16.60;99.90
33207;DHT22;19565;46.602;11.534;2023-09-19T03:49:08;16.70;99.90
33207;DHT22;19565;46.602;11.534;2023-09-19T03:51:39;16.70;99.90
33207;DHT22;19565;46.602;11.534;2023-09-19T03:54:09;16.70;99.90
33207;DHT22;19565;46.602;11.534;2023-09-19T03:56:40;16.60;99.90
33207;DHT22;19565;46.602;11.534;2023-09-19T03:59:11;16.50;99.90
33207;DHT22;19565;46.602;11.534;2023-09-19T04:01:42;16.40;99.90
33207;DHT22;19565;46.602;11.534;2023-09-19T04:04:13;16.40;99.90
33207;DHT22;19565;46.602;11.534;2023-09-19T04:06:44;16.50;99.90
33207;DHT22;19565;46.602;11.534;2023-09-19T04:09:14;16.60;99.90
33207;DHT22;19565;46.602;11.534;2023-09-19T04:11:44;16.70;99.90
33207;DHT22;19565;46.602;11.534;2023-09-19T04:14:14;16.70;99.90
33207;DHT22;19565;46.602;11.534;2023-09-19T04:16:45;16.60;99.90
33207;DHT22;19565;46.602;11.534;2023-09-19T04:19:17;16.60;99.90
33207;DHT22;19565;46.602;11.534;2023-09-19T04:21:47;16.50;99.90
33207;DHT22;19565;46.602;11.534;2023-09-19T04:24:18;16.60;99.90
33207;DHT22;19565;46.602;11.534;2023-09-19T04:26:48;16.50;99.90
33207;DHT22;19565;46.602;11.534;2023-09-19T04:29:19;16.40;99.90
33207;DHT22;19565;46.602;11.534;2023-09-19T04:31:49;16.40;99.90
33207;DHT22;19565;46.602;11.534;2023-09-19T04:34:21;16.30;99.90
33207;DHT22;19565;46.602;11.534;2023-09-19T04:36:53;16.40;99.90
33207;DHT22;19565;46.602;11.534;2023-09-19T04:39:24;16.40;99.90
33207;DHT22;19565;46.602;11.534;2023-09-19T04:41:55;16.50;99.90
33207;DHT22;19565;46.602;11.534;2023-09-19T04:44:26;16.40;99.90
33207;DHT22;19565;46.602;11.534;2023-09-19T04:47:02;16.30;99.90
33207;DHT22;19565;46.602;11.534;2023-09-19T04:49:39;16.20;99.90
33207;DHT22;19565;46.602;11.534;2023-09-19T04:52:09;16.10;99.90
33207;DHT22;19565;46.602;11.534;2023-09-19T04:54:40;16.20;99.90
33207;DHT22;19565;46.602;11.534;2023-09-19T04:57:10;16.10;99.90
33207;DHT22;19565;46.602;11.534;2023-09-19T04:59:41;16.10;99.90
33207;DHT22;19565;46.602;11.534;2023-09-19T05:02:11;16.10;99.90
33207;DHT22;19565;46.602;11.534;2023-09-19T05:04:44;16.20;99.90
33207;DHT22;19565;46.602;11.534;2023-09-19T05:07:14;16.20;99.90
33207;DHT22;19565;46.602;11.534;2023-09-19T05:09:45;16.30;99.90
33207;DHT22;19565;46.602;11.534;2023-09-19T05:12:16;16.40;99.90
33207;DHT22;19565;46.602;11.534;2023-09-19T05:14:46;16.50;99.90
33207;DHT22;19565;46.602;11.534;2023-09-19T05:17:17;16.50;99.90
33207;DHT22;19565;46.602;11.534;2023-09-19T05:19:49;16.40;99.90
33207;DHT22;19565;46.602;11.534;2023-09-19T05:22:19;16.30;99.90
33207;DHT22;19565;46.602;11.534;2023-09-19T05:24:52;16.20;99.90
33207;DHT22;19565;46.602;11.534;2023-09-19T05:27:28;16.20;99.90
33207;DHT22;19565;46.602;11.534;2023-09-19T05:30:03;16.20;99.90
33207;DHT22;19565;46.602;11.534;2023-09-19T05:32:40;16.20;99.90
33207;DHT22;19565;46.602;11.534;2023-09-19T05:35:14;16.20;99.90
33207;DHT22;19565;46.602;11.534;2023-09-19T05:37:47;16.20;99.90
33207;DHT22;19565;46.602;11.534;2023-09-19T05:40:19;16.30;99.90
33207;DHT22;19565;46.602;11.534;2023-09-19T05:42:49;16.40;99.90
33207;DHT22;19565;46.602;11.534;2023-09-19T05:45:20;16.50;99.90
33207;DHT22;19565;46.602;11.534;2023-09-19T05:47:52;16.40;99.90
33207;DHT22;19565;46.602;11.534;2023-09-19T05:50:26;16.30;99.90
33207;DHT22;19565;46.602;11.534;2023-09-19T05:52:56;16.30;99.90
33207;DHT22;19565;46.602;11.534;2023-09-19T05:55:26;16.30;99.90
33207;DHT22;19565;46.602;11.534;2023-09-19T05:57:58;16.20;99.90
33207;DHT22;19565;46.602;11.534;2023-09-19T06:00:28;16.10;99.90
33207;DHT22;19565;46.602;11.534;2023-09-19T06:03:00;16.10;99.90
33207;DHT22;19565;46.602;11.534;2023-09-19T06:05:33;16.00;99.90
33207;DHT22;19565;46.602;11.534;2023-09-19T06:08:04;15.80;99.90
33207;DHT22;19565;46.602;11.534;2023-09-19T06:10:36;15.70;99.90
33207;DHT22;19565;46.602;11.534;2023-09-19T06:13:07;15.70;99.90
33207;DHT22;19565;46.602;11.534;2023-09-19T06:15:38;15.80;99.90
33207;DHT22;19565;46.602;11.534;2023-09-19T06:18:17;15.80;99.90
33207;DHT22;19565;46.602;11.534;2023-09-19T06:21:03;15.90;99.90
33207;DHT22;19565;46.602;11.534;2023-09-19T06:23:37;16.00;99.90
33207;DHT22;19565;46.602;11.534;2023-09-19T06:26:35;16.00;99.90
33207;DHT22;19565;46.602;11.534;2023-09-19T06:29:26;16.00;99.90
33207;DHT22;19565;46.602;11.534;2023-09-19T06:32:13;16.00;99.90
33207;DHT22;19565;46.602;11.534;2023-09-19T06:35:04;15.90;99.90
33207;DHT22;19565;46.602;11.534;2023-09-19T06:37:57;15.80;99.90
33207;DHT22;19565;46.602;11.534;2023-09-19T06:41:00;15.80;99.90
33207;DHT22;19565;46.602;11.534;2023-09-19T06:43:54;15.80;99.90
33207;DHT22;19565;46.602;11.534;2023-09-19T06:46:44;15.80;99.90
33207;DHT22;19565;46.602;11.534;2023-09-19T06:49:39;15.90;99.90
33207;DHT22;19565;46.602;11.534;2023-09-19T06:52:29;15.80;99.90
33207;DHT22;19565;46.602;11.534;2023-09-19T06:58:14;15.90;99.90
33207;DHT22;19565;46.602;11.534;2023-09-19T07:00:46;15.90;99.90
33207;DHT22;19565;46.602;11.534;2023-09-19T07:03:32;15.90;99.90
33207;DHT22;19565;46.602;11.534;2023-09-19T07:06:21;16.00;99.90
33207;DHT22;19565;46.602;11.534;2023-09-19T07:08:53;16.00;99.90
33207;DHT22;19565;46.602;11.534;2023-09-19T07:11:24;16.00;99.90
33207;DHT22;19565;46.602;11.534;2023-09-19T07:14:03;16.00;99.90
33207;DHT22;19565;46.602;11.534;2023-09-19T07:16:40;16.10;99.90
33207;DHT22;19565;46.602;11.534;2023-09-19T07:19:17;16.20;99.90
33207;DHT22;19565;46.602;11.534;2023-09-19T07:21:50;16.20;99.90
33207;DHT22;19565;46.602;11.534;2023-09-19T07:24:22;16.30;99.90
33207;DHT22;19565;46.602;11.534;2023-09-19T07:27:00;16.40;99.90
33207;DHT22;19565;46.602;11.534;2023-09-19T07:29:41;16.50;99.90
33207;DHT22;19565;46.602;11.534;2023-09-19T07:32:20;16.60;99.90
33207;DHT22;19565;46.602;11.534;2023-09-19T07:34:57;16.70;99.90
33207;DHT22;19565;46.602;11.534;2023-09-19T07:37:29;16.80;99.90
33207;DHT22;19565;46.602;11.534;2023-09-19T07:39:57;16.90;99.90
33207;DHT22;19565;46.602;11.534;2023-09-19T07:42:29;16.90;99.90
33207;DHT22;19565;46.602;11.534;2023-09-19T07:45:00;17.00;99.90
33207;DHT22;19565;46.602;11.534;2023-09-19T07:47:28;17.00;99.90
33207;DHT22;19565;46.602;11.534;2023-09-19T07:49:56;17.00;99.90
33207;DHT22;19565;46.602;11.534;2023-09-19T07:52:25;17.10;99.90
33207;DHT22;19565;46.602;11.534;2023-09-19T07:54:54;17.00;99.90
33207;DHT22;19565;46.602;11.534;2023-09-19T07:57:24;17.10;99.90
33207;DHT22;19565;46.602;11.534;2023-09-19T07:59:52;17.20;99.90
33207;DHT22;19565;46.602;11.534;2023-09-19T08:02:22;17.20;99.90
33207;DHT22;19565;46.602;11.534;2023-09-19T08:04:50;17.30;99.90
33207;DHT22;19565;46.602;11.534;2023-09-19T08:07:19;17.40;99.90
33207;DHT22;19565;46.602;11.534;2023-09-19T08:09:47;17.50;99.90
33207;DHT22;19565;46.602;11.534;2023-09-19T08:12:15;17.50;99.90
33207;DHT22;19565;46.602;11.534;2023-09-19T08:14:43;17.60;99.90
33207;DHT22;19565;46.602;11.534;2023-09-19T08:17:13;17.60;99.90
33207;DHT22;19565;46.602;11.534;2023-09-19T08:19:43;17.60;99.90
33207;DHT22;19565;46.602;11.534;2023-09-19T08:22:13;17.70;99.90
33207;DHT22;19565;46.602;11.534;2023-09-19T08:24:43;17.80;99.90
33207;DHT22;19565;46.602;11.534;2023-09-19T08:27:12;17.80;99.90
33207;DHT22;19565;46.602;11.534;2023-09-19T08:29:41;17.80;99.90
33207;DHT22;19565;46.602;11.534;2023-09-19T08:32:09;17.80;99.90
33207;DHT22;19565;46.602;11.534;2023-09-19T08:34:37;17.90;99.90
33207;DHT22;19565;46.602;11.534;2023-09-19T08:37:06;17.90;99.90
33207;DHT22;19565;46.602;11.534;2023-09-19T08:39:35;17.90;99.90
33207;DHT22;19565;46.602;11.534;2023-09-19T08:42:03;18.00;99.90
33207;DHT22;19565;46.602;11.534;2023-09-19T08:44:36;18.00;99.90
33207;DHT22;19565;46.602;11.534;2023-09-19T08:47:09;17.90;99.90
33207;DHT22;19565;46.602;11.534;2023-09-19T08:49:59;18.00;99.90
33207;DHT22;19565;46.602;11.534;2023-09-19T08:52:33;18.10;99.90
33207;DHT22;19565;46.602;11.534;2023-09-19T08:55:06;18.10;99.90
33207;DHT22;19565;46.602;11.534;2023-09-19T08:57:37;18.20;99.90
33207;DHT22;19565;46.602;11.534;2023-09-19T09:00:09;18.30;99.90
33207;DHT22;19565;46.602;11.534;2023-09-19T09:02:39;18.40;99.90
33207;DHT22;19565;46.602;11.534;2023-09-19T09:05:08;18.30;99.90
33207;DHT22;19565;46.602;11.534;2023-09-19T09:07:39;18.40;99.90
33207;DHT22;19565;46.602;11.534;2023-09-19T09:10:08;18.40;99.90
33207;DHT22;19565;46.602;11.534;2023-09-19T09:12:36;18.50;99.90
33207;DHT22;19565;46.602;11.534;2023-09-19T09:15:08;18.50;99.90
33207;DHT22;19565;46.602;11.534;2023-09-19T09:17:38;18.60;99.90
33207;DHT22;19565;46.602;11.534;2023-09-19T09:20:07;18.60;99.90
33207;DHT22;19565;46.602;11.534;2023-09-19T09:22:38;18.70;99.90
33207;DHT22;19565;46.602;11.534;2023-09-19T09:25:11;18.70;99.90
33207;DHT22;19565;46.602;11.534;2023-09-19T09:27:40;18.80;99.90
33207;DHT22;19565;46.602;11.534;2023-09-19T09:30:09;18.80;99.90
33207;DHT22;19565;46.602;11.534;2023-09-19T09:32:39;18.90;99.90
33207;DHT22;19565;46.602;11.534;2023-09-19T09:35:27;18.90;99.90
33207;DHT22;19565;46.602;11.534;2023-09-19T09:38:00;18.90;99.90
33207;DHT22;19565;46.602;11.534;2023-09-19T09:40:45;19.00;99.90
33207;DHT22;19565;46.602;11.534;2023-09-19T09:43:28;19.00;99.90
33207;DHT22;19565;46.602;11.534;2023-09-19T09:46:07;19.10;99.90
33207;DHT22;19565;46.602;11.534;2023-09-19T09:48:58;19.10;99.90
33207;DHT22;19565;46.602;11.534;2023-09-19T09:51:49;19.20;99.90
33207;DHT22;19565;46.602;11.534;2023-09-19T09:54:29;19.30;99.90
33207;DHT22;19565;46.602;11.534;2023-09-19T09:57:04;19.30;99.90
33207;DHT22;19565;46.602;11.534;2023-09-19T09:59:49;19.30;99.90
33207;DHT22;19565;46.602;11.534;2023-09-19T10:02:26;19.40;99.90
33207;DHT22;19565;46.602;11.534;2023-09-19T10:04:57;19.40;99.90
33207;DHT22;19565;46.602;11.534;2023-09-19T10:07:41;19.40;99.90
33207;DHT22;19565;46.602;11.534;2023-09-19T10:10:30;19.50;99.90
33207;DHT22;19565;46.602;11.534;2023-09-19T10:13:06;19.60;99.90
33207;DHT22;19565;46.602;11.534;2023-09-19T10:15:39;19.60;99.90
33207;DHT22;19565;46.602;11.534;2023-09-19T10:18:10;19.70;99.90
33207;DHT22;19565;46.602;11.534;2023-09-19T10:20:45;19.70;99.90
33207;DHT22;19565;46.602;11.534;2023-09-19T10:23:17;19.70;99.90
33207;DHT22;19565;46.602;11.534;2023-09-19T10:25:51;19.80;99.90
33207;DHT22;19565;46.602;11.534;2023-09-19T10:28:21;19.80;99.90
33207;DHT22;19565;46.602;11.534;2023-09-19T10:30:50;19.90;99.90
33207;DHT22;19565;46.602;11.534;2023-09-19T10:33:21;20.00;99.90
33207;DHT22;19565;46.602;11.534;2023-09-19T10:35:53;20.00;99.90
33207;DHT22;19565;46.602;11.534;2023-09-19T10:38:24;20.00;99.90
33207;DHT22;19565;46.602;11.534;2023-09-19T10:40:54;20.10;99.90
33207;DHT22;19565;46.602;11.534;2023-09-19T10:43:30;20.20;99.90
33207;DHT22;19565;46.602;11.534;2023-09-19T10:46:02;20.20;99.90
33207;DHT22;19565;46.602;11.534;2023-09-19T10:48:32;20.30;99.90
33207;DHT22;19565;46.602;11.534;2023-09-19T10:51:05;20.30;99.90
33207;DHT22;19565;46.602;11.534;2023-09-19T10:53:43;20.40;99.90
33207;DHT22;19565;46.602;11.534;2023-09-19T10:56:19;20.50;99.90
33207;DHT22;19565;46.602;11.534;2023-09-19T10:58:49;20.50;99.90
33207;DHT22;19565;46.602;11.534;2023-09-19T11:01:18;20.50;99.90
33207;DHT22;19565;46.602;11.534;2023-09-19T11:03:48;20.60;99.40
33207;DHT22;19565;46.602;11.534;2023-09-19T11:06:17;20.70;99.90
33207;DHT22;19565;46.602;11.534;2023-09-19T11:11:51;20.80;99.50
33207;DHT22;19565;46.602;11.534;2023-09-19T11:14:41;20.80;99.50
33207;DHT22;19565;46.602;11.534;2023-09-19T11:17:40;20.90;99.10
33207;DHT22;19565;46.602;11.534;2023-09-19T11:20:23;21.00;98.40
33207;DHT22;19565;46.602;11.534;2023-09-19T11:23:25;21.00;98.80
33207;DHT22;19565;46.602;11.534;2023-09-19T11:25:53;21.10;98.70
33207;DHT22;19565;46.602;11.534;2023-09-19T11:28:33;21.10;98.00
33207;DHT22;19565;46.602;11.534;2023-09-19T11:34:46;21.20;98.20
33207;DHT22;19565;46.602;11.534;2023-09-19T11:40:38;21.30;98.10
33207;DHT22;19565;46.602;11.534;2023-09-19T11:43:27;21.30;97.40
33207;DHT22;19565;46.602;11.534;2023-09-19T11:46:08;21.40;97.20
33207;DHT22;19565;46.602;11.534;2023-09-19T11:48:39;21.50;96.70
33207;DHT22;19565;46.602;11.534;2023-09-19T11:51:15;21.60;96.10
33207;DHT22;19565;46.602;11.534;2023-09-19T11:53:49;21.70;96.10
33207;DHT22;19565;46.602;11.534;2023-09-19T11:56:19;21.70;96.20
33207;DHT22;19565;46.602;11.534;2023-09-19T11:58:49;21.80;96.00
33207;DHT22;19565;46.602;11.534;2023-09-19T12:01:32;21.80;96.20
33207;DHT22;19565;46.602;11.534;2023-09-19T12:04:03;21.90;95.70
33207;DHT22;19565;46.602;11.534;2023-09-19T12:06:32;22.00;96.00
33207;DHT22;19565;46.602;11.534;2023-09-19T12:09:00;22.00;96.00
33207;DHT22;19565;46.602;11.534;2023-09-19T12:11:30;22.10;94.40
33207;DHT22;19565;46.602;11.534;2023-09-19T12:14:01;22.20;95.10
33207;DHT22;19565;46.602;11.534;2023-09-19T12:16:32;22.20;95.10
33207;DHT22;19565;46.602;11.534;2023-09-19T12:19:19;22.20;95.10
33207;DHT22;19565;46.602;11.534;2023-09-19T12:21:56;22.20;94.60
33207;DHT22;19565;46.602;11.534;2023-09-19T12:24:27;22.30;95.00
33207;DHT22;19565;46.602;11.534;2023-09-19T12:27:02;22.30;94.80
33207;DHT22;19565;46.602;11.534;2023-09-19T12:29:42;22.30;94.50
33207;DHT22;19565;46.602;11.534;2023-09-19T12:32:11;22.40;93.10
33207;DHT22;19565;46.602;11.534;2023-09-19T12:34:40;22.40;92.60
33207;DHT22;19565;46.602;11.534;2023-09-19T12:37:11;22.50;91.80
33207;DHT22;19565;46.602;11.534;2023-09-19T12:39:40;22.60;92.00
33207;DHT22;19565;46.602;11.534;2023-09-19T12:42:10;22.70;91.80
33207;DHT22;19565;46.602;11.534;2023-09-19T12:44:42;22.70;92.10
33207;DHT22;19565;46.602;11.534;2023-09-19T12:47:13;22.80;91.90
33207;DHT22;19565;46.602;11.534;2023-09-19T12:50:06;22.80;92.20
33207;DHT22;19565;46.602;11.534;2023-09-19T12:52:35;22.80;92.60
33207;DHT22;19565;46.602;11.534;2023-09-19T12:55:04;22.90;92.90
33207;DHT22;19565;46.602;11.534;2023-09-19T12:57:33;22.90;92.60
33207;DHT22;19565;46.602;11.534;2023-09-19T13:00:02;23.00;92.90
33207;DHT22;19565;46.602;11.534;2023-09-19T13:02:33;23.00;93.80
33207;DHT22;19565;46.602;11.534;2023-09-19T13:05:02;23.10;93.60
33207;DHT22;19565;46.602;11.534;2023-09-19T13:07:43;23.20;92.70
33207;DHT22;19565;46.602;11.534;2023-09-19T13:10:12;23.30;93.60
33207;DHT22;19565;46.602;11.534;2023-09-19T13:12:44;23.20;92.20
33207;DHT22;19565;46.602;11.534;2023-09-19T13:15:14;23.30;93.00
33207;DHT22;19565;46.602;11.534;2023-09-19T13:17:48;23.30;94.30
33207;DHT22;19565;46.602;11.534;2023-09-19T13:20:23;23.20;95.60
33207;DHT22;19565;46.602;11.534;2023-09-19T13:22:54;23.10;95.70
33207;DHT22;19565;46.602;11.534;2023-09-19T13:25:25;23.00;95.70
33207;DHT22;19565;46.602;11.534;2023-09-19T13:27:57;23.00;95.50
33207;DHT22;19565;46.602;11.534;2023-09-19T13:30:27;22.90;95.90
33207;DHT22;19565;46.602;11.534;2023-09-19T13:33:06;22.90;96.80
33207;DHT22;19565;46.602;11.534;2023-09-19T13:35:34;22.90;97.40
33207;DHT22;19565;46.602;11.534;2023-09-19T13:38:03;22.90;97.60
33207;DHT22;19565;46.602;11.534;2023-09-19T13:40:33;22.90;97.80
33207;DHT22;19565;46.602;11.534;2023-09-19T13:43:02;22.90;97.90
33207;DHT22;19565;46.602;11.534;2023-09-19T13:45:30;22.90;98.10
33207;DHT22;19565;46.602;11.534;2023-09-19T13:47:58;22.90;98.50
33207;DHT22;19565;46.602;11.534;2023-09-19T13:50:28;22.80;98.80
33207;DHT22;19565;46.602;11.534;2023-09-19T13:52:58;22.80;99.40
33207;DHT22;19565;46.602;11.534;2023-09-19T13:55:27;22.80;99.60
33207;DHT22;19565;46.602;11.534;2023-09-19T13:57:55;22.80;99.80
33207;DHT22;19565;46.602;11.534;2023-09-19T14:00:24;22.90;99.20
33207;DHT22;19565;46.602;11.534;2023-09-19T14:02:52;22.90;99.00
33207;DHT22;19565;46.602;11.534;2023-09-19T14:05:20;23.00;98.90
33207;DHT22;19565;46.602;11.534;2023-09-19T14:07:49;23.00;98.90
33207;DHT22;19565;46.602;11.534;2023-09-19T14:10:17;23.10;99.60
33207;DHT22;19565;46.602;11.534;2023-09-19T14:12:45;23.10;99.40
33207;DHT22;19565;46.602;11.534;2023-09-19T14:15:14;23.20;99.10
33207;DHT22;19565;46.602;11.534;2023-09-19T14:17:42;23.20;98.90
33207;DHT22;19565;46.602;11.534;2023-09-19T14:20:12;23.20;98.90
33207;DHT22;19565;46.602;11.534;2023-09-19T14:22:41;23.10;98.80
33207;DHT22;19565;46.602;11.534;2023-09-19T14:25:10;23.10;98.10
33207;DHT22;19565;46.602;11.534;2023-09-19T14:27:38;23.20;97.90
33207;DHT22;19565;46.602;11.534;2023-09-19T14:30:07;23.30;98.10
33207;DHT22;19565;46.602;11.534;2023-09-19T14:32:35;23.40;98.30
33207;DHT22;19565;46.602;11.534;2023-09-19T14:35:05;23.40;98.30
33207;DHT22;19565;46.602;11.534;2023-09-19T14:37:33;23.50;98.20
33207;DHT22;19565;46.602;11.534;2023-09-19T14:40:02;23.50;97.60
33207;DHT22;19565;46.602;11.534;2023-09-19T14:42:39;23.50;97.20
33207;DHT22;19565;46.602;11.534;2023-09-19T14:45:08;23.60;97.60
33207;DHT22;19565;46.602;11.534;2023-09-19T14:47:36;23.70;98.30
33207;DHT22;19565;46.602;11.534;2023-09-19T14:50:06;23.70;98.60
33207;DHT22;19565;46.602;11.534;2023-09-19T14:52:35;23.60;98.70
33207;DHT22;19565;46.602;11.534;2023-09-19T14:55:04;23.50;98.80
33207;DHT22;19565;46.602;11.534;2023-09-19T14:57:33;23.40;99.10
33207;DHT22;19565;46.602;11.534;2023-09-19T15:00:02;23.20;99.30
33207;DHT22;19565;46.602;11.534;2023-09-19T15:02:33;23.10;99.70
33207;DHT22;19565;46.602;11.534;2023-09-19T15:05:02;23.00;99.70
33207;DHT22;19565;46.602;11.534;2023-09-19T15:07:30;22.90;99.70
33207;DHT22;19565;46.602;11.534;2023-09-19T15:09:58;22.80;99.70
33207;DHT22;19565;46.602;11.534;2023-09-19T15:12:26;22.70;99.90
33207;DHT22;19565;46.602;11.534;2023-09-19T15:14:55;22.70;99.90
33207;DHT22;19565;46.602;11.534;2023-09-19T15:17:25;22.60;99.90
33207;DHT22;19565;46.602;11.534;2023-09-19T15:19:53;22.60;99.80
33207;DHT22;19565;46.602;11.534;2023-09-19T15:22:22;22.50;99.90
33207;DHT22;19565;46.602;11.534;2023-09-19T15:24:50;22.50;99.90
33207;DHT22;19565;46.602;11.534;2023-09-19T15:27:19;22.40;99.90
33207;DHT22;19565;46.602;11.534;2023-09-19T15:29:47;22.40;99.90
33207;DHT22;19565;46.602;11.534;2023-09-19T15:32:14;22.40;99.10
33207;DHT22;19565;46.602;11.534;2023-09-19T15:34:44;22.40;99.10
33207;DHT22;19565;46.602;11.534;2023-09-19T15:37:12;22.30;99.20
33207;DHT22;19565;46.602;11.534;2023-09-19T15:39:40;22.30;99.50
33207;DHT22;19565;46.602;11.534;2023-09-19T15:42:08;22.30;99.60
33207;DHT22;19565;46.602;11.534;2023-09-19T15:44:36;22.30;99.90
33207;DHT22;19565;46.602;11.534;2023-09-19T15:47:04;22.20;99.90
33207;DHT22;19565;46.602;11.534;2023-09-19T15:49:33;22.20;99.90
33207;DHT22;19565;46.602;11.534;2023-09-19T15:52:02;22.20;99.90
33207;DHT22;19565;46.602;11.534;2023-09-19T15:54:31;22.10;99.90
33207;DHT22;19565;46.602;11.534;2023-09-19T15:57:00;22.10;99.90
33207;DHT22;19565;46.602;11.534;2023-09-19T15:59:28;22.00;99.90
33207;DHT22;19565;46.602;11.534;2023-09-19T16:01:57;22.00;99.90
33207;DHT22;19565;46.602;11.534;2023-09-19T16:04:25;22.00;99.90
33207;DHT22;19565;46.602;11.534;2023-09-19T16:06:53;21.90;99.90